createdAt,value
2022-11-12T00:00:12.252Z,100491.88
2022-11-12T00:03:16.617Z,100482.75
2022-11-12T00:06:20.740Z,100493.81
2022-11-12T00:09:25.108Z,100484.72
2022-11-12T00:12:29.549Z,100478.38
2022-11-12T00:15:34.073Z,100483.16
2022-11-12T00:18:38.282Z,100479.56
2022-11-12T00:21:42.366Z,100475.19
2022-11-12T00:24:46.707Z,100476.78
2022-11-12T00:27:50.888Z,100480.75
2022-11-12T00:30:55.165Z,100476.00
2022-11-12T00:33:59.335Z,100474.41
2022-11-12T00:37:03.873Z,100477.56
2022-11-12T00:40:08.773Z,100476.75
2022-11-12T00:43:13.243Z,100479.13
2022-11-12T00:46:17.258Z,100472.00
2022-11-12T00:49:21.501Z,100472.00
2022-11-12T00:52:25.859Z,100475.97
2022-11-12T00:55:30.171Z,100475.97
2022-11-12T00:58:36.097Z,100469.63
2022-11-12T01:01:41.035Z,100470.00
2022-11-12T01:04:45.030Z,100471.59
2022-11-12T01:07:54.740Z,100479.13
2022-11-12T01:11:08.188Z,100476.34
2022-11-12T01:14:12.199Z,100476.34
2022-11-12T01:17:16.169Z,100472.78
2022-11-12T01:20:20.444Z,100471.19
2022-11-12T01:23:24.544Z,100470.38
2022-11-12T01:26:29.011Z,100471.97
2022-11-12T01:29:33.393Z,100472.38
2022-11-12T01:32:37.968Z,100471.19
2022-11-12T01:35:42.488Z,100473.94
2022-11-12T01:38:47.632Z,100464.84
2022-11-12T01:41:52.139Z,100468.78
2022-11-12T01:44:56.636Z,100472.38
2022-11-12T01:48:01.527Z,100470.75
2022-11-12T01:51:08.017Z,100466.00
2022-11-12T01:54:15.693Z,100466.41
2022-11-12T01:57:37.103Z,100469.97
2022-11-12T02:00:42.256Z,100466.41
2022-11-12T02:03:46.676Z,100464.44
2022-11-12T02:06:51.814Z,100467.56
2022-11-12T02:09:56.238Z,100469.19
2022-11-12T02:13:20.369Z,100465.63
2022-11-12T02:16:32.807Z,100464.81
2022-11-12T02:19:38.021Z,100460.44
2022-11-12T02:22:42.630Z,100467.56
2022-11-12T02:25:46.833Z,100460.03
2022-11-12T02:28:50.806Z,100462.44
2022-11-12T02:31:55.051Z,100466.00
2022-11-12T02:34:59.454Z,100467.16
2022-11-12T02:38:05.034Z,100461.63
2022-11-12T02:41:08.877Z,100462.81
2022-11-12T02:44:12.947Z,100458.84
2022-11-12T02:47:17.193Z,100460.03
2022-11-12T02:50:21.214Z,100462.81
2022-11-12T02:53:25.647Z,100460.41
2022-11-12T02:56:29.938Z,100463.19
2022-11-12T02:59:34.040Z,100463.19
2022-11-12T03:02:42.867Z,100466.78
2022-11-12T03:05:56.306Z,100469.13
2022-11-12T03:09:00.462Z,100476.25
2022-11-12T03:12:04.874Z,100472.69
2022-11-12T03:15:09.820Z,100466.34
2022-11-12T03:18:14.270Z,100467.13
2022-11-12T03:21:18.463Z,100471.88
2022-11-12T03:24:22.587Z,100455.63
2022-11-12T03:27:26.614Z,100471.88
2022-11-12T03:30:33.958Z,100470.28
2022-11-12T03:33:38.335Z,100468.69
2022-11-12T03:36:42.577Z,100471.06
2022-11-12T03:39:46.857Z,100470.28
2022-11-12T03:42:52.354Z,100475.03
2022-11-12T03:45:56.415Z,100478.59
2022-11-12T03:49:02.672Z,100478.59
2022-11-12T03:52:06.833Z,100473.06
2022-11-12T03:55:11.426Z,100475.41
2022-11-12T03:58:15.651Z,100474.25
2022-11-12T04:01:19.815Z,100474.25
2022-11-12T04:04:23.779Z,100475.81
2022-11-12T04:07:46.590Z,100463.94
2022-11-12T04:10:51.253Z,100460.75
2022-11-12T04:13:55.640Z,100462.34
2022-11-12T04:17:18.356Z,100469.88
2022-11-12T04:20:41.045Z,100474.25
2022-11-12T04:23:45.229Z,100477.38
2022-11-12T04:26:49.337Z,100476.59
2022-11-12T04:30:12.507Z,100473.81
2022-11-12T04:33:16.791Z,100473.03
2022-11-12T04:36:21.356Z,100475.00
2022-11-12T04:39:25.569Z,100482.13
2022-11-12T04:42:48.148Z,100477.75
2022-11-12T04:45:54.026Z,100473.03
2022-11-12T04:48:58.143Z,100469.44
2022-11-12T04:52:05.253Z,100476.19
2022-11-12T04:55:10.069Z,100486.06
2022-11-12T04:58:14.029Z,100486.88
2022-11-12T05:01:18.161Z,100484.50
2022-11-12T05:04:22.461Z,100483.72
2022-11-12T05:07:26.534Z,100474.25
2022-11-12T05:10:31.209Z,100484.13
2022-11-12T05:13:35.145Z,100489.31
2022-11-12T05:16:40.066Z,100490.09
2022-11-12T05:19:44.256Z,100489.31
2022-11-12T05:23:05.003Z,100497.25
2022-11-12T05:26:10.460Z,100503.59
2022-11-12T05:29:14.606Z,100498.84
2022-11-12T05:32:18.900Z,100500.81
2022-11-12T05:35:22.935Z,100502.03
2022-11-12T05:38:27.316Z,100498.47
2022-11-12T05:41:51.101Z,100508.34
2022-11-12T05:44:55.783Z,100507.19
2022-11-12T05:48:00.069Z,100497.28
2022-11-12T05:51:13.149Z,100506.38
2022-11-12T05:54:18.437Z,100509.16
2022-11-12T05:57:22.231Z,100512.69
2022-11-12T06:00:26.377Z,100513.88
2022-11-12T06:03:31.109Z,100520.59
2022-11-12T06:06:35.741Z,100526.53
2022-11-12T06:09:40.450Z,100520.22
2022-11-12T06:12:44.645Z,100525.03
2022-11-12T06:15:49.095Z,100525.09
2022-11-12T06:18:53.366Z,100529.44
2022-11-12T06:21:57.637Z,100535.41
2022-11-12T06:25:02.250Z,100533.84
2022-11-12T06:28:06.591Z,100532.31
2022-11-12T06:31:10.964Z,100533.53
2022-11-12T06:34:15.174Z,100541.44
2022-11-12T06:37:20.041Z,100543.41
2022-11-12T06:40:24.306Z,100534.31
2022-11-12T06:43:30.775Z,100530.75
2022-11-12T06:46:34.897Z,100539.56
2022-11-12T06:49:39.398Z,100535.66
2022-11-12T06:52:43.819Z,100542.44
2022-11-12T06:55:48.196Z,100540.47
2022-11-12T06:58:52.494Z,100539.72
2022-11-12T07:01:56.560Z,100538.94
2022-11-12T07:05:00.985Z,100535.44
2022-11-12T07:08:06.668Z,100539.81
2022-11-12T07:11:11.435Z,100539.41
2022-11-12T07:14:15.195Z,100535.84
2022-11-12T07:17:19.174Z,100528.31
2022-11-12T07:20:23.628Z,100527.09
2022-11-12T07:23:30.703Z,100535.81
2022-11-12T07:26:35.211Z,100537.78
2022-11-12T07:29:49.012Z,100536.97
2022-11-12T07:32:53.326Z,100539.75
2022-11-12T07:36:01.843Z,100539.78
2022-11-12T07:39:06.136Z,100531.09
2022-11-12T07:42:10.233Z,100526.75
2022-11-12T07:45:14.390Z,100529.19
2022-11-12T07:48:18.605Z,100530.41
2022-11-12T07:51:25.912Z,100534.00
2022-11-12T07:54:30.117Z,100526.09
2022-11-12T07:57:34.810Z,100522.53
2022-11-12T08:00:38.710Z,100527.28
2022-11-12T08:03:42.864Z,100522.97
2022-11-12T08:06:47.390Z,100524.19
2022-11-12T08:09:51.708Z,100535.69
2022-11-12T08:12:57.094Z,100530.53
2022-11-12T08:16:02.755Z,100530.94
2022-11-12T08:19:09.312Z,100525.41
2022-11-12T08:22:13.935Z,100530.59
2022-11-12T08:25:20.368Z,100522.25
2022-11-12T08:28:25.062Z,100518.69
2022-11-12T08:31:29.555Z,100523.09
2022-11-12T08:34:33.936Z,100527.41
2022-11-12T08:37:38.020Z,100530.59
2022-11-12T08:40:42.228Z,100530.22
2022-11-12T08:43:46.706Z,100529.84
2022-11-12T08:46:51.649Z,100527.06
2022-11-12T08:49:55.622Z,100525.06
2022-11-12T08:53:08.342Z,100525.91
2022-11-12T08:56:12.893Z,100523.53
2022-11-12T08:59:17.681Z,100518.78
2022-11-12T09:02:22.259Z,100519.22
2022-11-12T09:05:26.211Z,100526.72
2022-11-12T09:08:30.583Z,100534.22
2022-11-12T09:11:35.255Z,100528.31
2022-11-12T09:14:39.365Z,100525.91
2022-11-12T09:17:43.473Z,100534.28
2022-11-12T09:20:47.777Z,100529.94
2022-11-12T09:23:52.145Z,100531.94
2022-11-12T09:26:56.585Z,100527.53
2022-11-12T09:30:00.963Z,100521.19
2022-11-12T09:33:05.161Z,100527.53
2022-11-12T09:36:09.403Z,100521.22
2022-11-12T09:39:13.350Z,100522.00
2022-11-12T09:42:22.217Z,100522.78
2022-11-12T09:45:31.264Z,100510.81
2022-11-12T09:48:44.348Z,100514.38
2022-11-12T09:51:56.528Z,100500.47
2022-11-12T09:55:25.841Z,100504.03
2022-11-12T09:58:30.158Z,100508.38
2022-11-12T10:01:43.327Z,100511.91
2022-11-12T10:05:06.115Z,100507.56
2022-11-12T10:08:32.106Z,100513.88
2022-11-12T10:12:04.580Z,100508.31
2022-11-12T10:15:49.745Z,100512.66
2022-11-12T10:19:10.341Z,100511.47
2022-11-12T10:22:27.403Z,100504.34
2022-11-12T10:25:32.424Z,100510.66
2022-11-12T10:29:07.898Z,100503.50
2022-11-12T10:32:15.587Z,100501.91
2022-11-12T10:35:22.850Z,100492.78
2022-11-12T10:38:28.902Z,100486.88
2022-11-12T10:41:34.204Z,100491.63
2022-11-12T10:44:39.571Z,100492.44
2022-11-12T10:47:46.815Z,100492.88
2022-11-12T10:50:51.246Z,100492.91
2022-11-12T10:53:56.270Z,100494.88
2022-11-12T10:57:19.797Z,100492.94
2022-11-12T11:00:24.326Z,100483.03
2022-11-12T11:03:32.554Z,100478.28
2022-11-12T11:06:36.996Z,100474.72
2022-11-12T11:10:00.252Z,100482.28
2022-11-12T11:13:26.879Z,100480.75
2022-11-12T11:16:32.000Z,100481.94
2022-11-12T11:19:39.775Z,100486.31
2022-11-12T11:22:50.306Z,100485.13
2022-11-12T11:26:02.821Z,100481.94
2022-11-12T11:29:25.195Z,100477.63
2022-11-12T11:32:57.306Z,100485.56
2022-11-12T11:36:24.516Z,100487.94
2022-11-12T11:39:39.574Z,100485.94
2022-11-12T11:42:59.190Z,100485.19
2022-11-12T11:46:10.945Z,100475.69
2022-11-12T11:49:42.973Z,100468.94
2022-11-12T11:53:09.835Z,100468.94
2022-11-12T11:56:26.382Z,100467.78
2022-11-12T11:59:41.729Z,100462.63
2022-11-12T12:02:53.169Z,100454.69
2022-11-12T12:06:12.348Z,100454.69
2022-11-12T12:09:16.301Z,100454.28
2022-11-12T12:12:49.943Z,100453.09
2022-11-12T12:16:03.000Z,100445.19
2022-11-12T12:19:10.999Z,100441.19
2022-11-12T12:22:21.992Z,100440.41
2022-11-12T12:25:35.852Z,100432.84
2022-11-12T12:29:16.841Z,100426.13
2022-11-12T12:32:33.478Z,100428.09
2022-11-12T12:35:51.803Z,100427.72
2022-11-12T12:39:04.419Z,100426.13
2022-11-12T12:42:18.682Z,100430.91
2022-11-12T12:45:23.198Z,100425.34
2022-11-12T12:48:31.554Z,100429.31
2022-11-12T12:51:35.956Z,100427.75
2022-11-12T12:54:52.201Z,100428.13
2022-11-12T12:58:00.120Z,100430.13
2022-11-12T13:01:11.616Z,100426.16
2022-11-12T13:04:16.011Z,100432.91
2022-11-12T13:07:38.863Z,100431.31
2022-11-12T13:10:43.232Z,100419.81
2022-11-12T13:13:47.607Z,100424.16
2022-11-12T13:16:52.075Z,100424.97
2022-11-12T13:19:59.082Z,100420.22
2022-11-12T13:23:05.648Z,100423.00
2022-11-12T13:26:45.672Z,100423.00
2022-11-12T13:29:50.180Z,100427.75
2022-11-12T13:32:55.960Z,100438.88
2022-11-12T13:36:26.031Z,100417.41
2022-11-12T13:39:35.527Z,100420.59
2022-11-12T13:42:49.809Z,100420.22
2022-11-12T13:46:24.899Z,100408.31
2022-11-12T13:49:31.940Z,100417.44
2022-11-12T13:52:40.372Z,100419.44
2022-11-12T13:55:50.031Z,100415.50
2022-11-12T13:58:54.331Z,100417.41
2022-11-12T14:02:05.347Z,100415.84
2022-11-12T14:05:15.695Z,100413.84
2022-11-12T14:08:35.124Z,100407.09
2022-11-12T14:11:48.785Z,100412.66
2022-11-12T14:15:28.608Z,100413.88
2022-11-12T14:18:38.706Z,100409.09
2022-11-12T14:21:43.485Z,100408.72
2022-11-12T14:25:01.629Z,100398.41
2022-11-12T14:28:06.450Z,100399.97
2022-11-12T14:31:15.045Z,100395.22
2022-11-12T14:34:28.842Z,100405.94
2022-11-12T14:37:33.100Z,100399.19
2022-11-12T14:40:43.661Z,100396.41
2022-11-12T14:44:11.029Z,100396.81
2022-11-12T14:47:18.168Z,100385.69
2022-11-12T14:50:33.403Z,100389.66
2022-11-12T14:53:43.706Z,100388.06
2022-11-12T14:56:49.523Z,100388.06
2022-11-12T14:59:54.506Z,100388.84
2022-11-12T15:03:02.134Z,100394.41
2022-11-12T15:06:06.303Z,100395.63
2022-11-12T15:09:10.410Z,100399.19
2022-11-12T15:12:22.398Z,100390.03
2022-11-12T15:15:26.870Z,100396.78
2022-11-12T15:18:33.817Z,100398.78
2022-11-12T15:21:48.073Z,100402.34
2022-11-12T15:24:52.602Z,100404.75
2022-11-12T15:28:12.568Z,100413.09
2022-11-12T15:31:20.797Z,100402.75
2022-11-12T15:34:33.106Z,100404.75
2022-11-12T15:37:43.445Z,100400.78
2022-11-12T15:40:57.268Z,100400.78
2022-11-12T15:44:02.822Z,100411.91
2022-11-12T15:47:14.364Z,100408.72
2022-11-12T15:50:22.759Z,100403.94
2022-11-12T15:53:28.570Z,100401.56
2022-11-12T15:56:33.261Z,100408.31
2022-11-12T15:59:37.672Z,100407.91
2022-11-12T16:02:43.026Z,100402.34
2022-11-12T16:05:47.317Z,100408.31
2022-11-12T16:08:51.343Z,100407.91
2022-11-12T16:11:57.509Z,100407.91
2022-11-12T16:15:02.196Z,100404.75
2022-11-12T16:18:10.050Z,100400.38
2022-11-12T16:21:20.494Z,100392.03
2022-11-12T16:24:25.185Z,100406.34
2022-11-12T16:27:30.231Z,100397.59
2022-11-12T16:30:34.670Z,100403.94
2022-11-12T16:33:38.956Z,100401.56
2022-11-12T16:36:43.203Z,100399.19
2022-11-12T16:39:47.266Z,100393.63
2022-11-12T16:42:52.255Z,100394.03
2022-11-12T16:45:56.632Z,100394.41
2022-11-12T16:49:01.026Z,100388.84
2022-11-12T16:52:05.158Z,100394.81
2022-11-12T16:55:10.320Z,100392.44
2022-11-12T16:58:15.162Z,100387.28
2022-11-12T17:01:29.352Z,100394.00
2022-11-12T17:04:35.985Z,100387.28
2022-11-12T17:07:40.186Z,100381.72
2022-11-12T17:10:44.869Z,100389.66
2022-11-12T17:13:49.678Z,100378.91
2022-11-12T17:16:53.988Z,100378.53
2022-11-12T17:19:58.504Z,100385.28
2022-11-12T17:23:02.600Z,100378.13
2022-11-12T17:26:10.329Z,100372.97
2022-11-12T17:29:14.599Z,100381.69
2022-11-12T17:32:19.260Z,100376.97
2022-11-12T17:35:25.128Z,100372.97
2022-11-12T17:38:30.883Z,100378.16
2022-11-12T17:41:35.109Z,100379.31
2022-11-12T17:44:39.855Z,100362.63
2022-11-12T17:47:44.937Z,100369.81
2022-11-12T17:50:50.117Z,100372.16
2022-11-12T17:53:54.912Z,100368.19
2022-11-12T17:56:59.375Z,100376.94
2022-11-12T18:00:04.947Z,100372.59
2022-11-12T18:03:09.288Z,100365.41
2022-11-12T18:06:16.653Z,100377.75
2022-11-12T18:09:21.563Z,100373.34
2022-11-12T18:12:25.646Z,100372.19
2022-11-12T18:15:33.295Z,100369.78
2022-11-12T18:18:37.779Z,100379.31
2022-11-12T18:21:42.499Z,100371.38
2022-11-12T18:24:50.964Z,100370.97
2022-11-12T18:27:55.725Z,100371.78
2022-11-12T18:31:06.798Z,100366.59
2022-11-12T18:34:15.106Z,100366.59
2022-11-12T18:37:19.401Z,100368.19
2022-11-12T18:40:24.339Z,100363.44
2022-11-12T18:43:29.213Z,100356.66
2022-11-12T18:46:33.936Z,100355.06
2022-11-12T18:49:38.980Z,100359.84
2022-11-12T18:52:43.753Z,100352.28
2022-11-12T18:55:48.358Z,100357.47
2022-11-12T18:58:52.956Z,100351.50
2022-11-12T19:01:58.840Z,100354.28
2022-11-12T19:05:03.478Z,100354.28
2022-11-12T19:08:08.070Z,100353.09
2022-11-12T19:11:15.453Z,100344.75
2022-11-12T19:14:20.111Z,100351.50
2022-11-12T19:17:30.491Z,100345.16
2022-11-12T19:20:35.689Z,100346.34
2022-11-12T19:23:41.428Z,100350.31
2022-11-12T19:26:46.637Z,100344.34
2022-11-12T19:29:51.237Z,100356.66
2022-11-12T19:32:56.720Z,100345.16
2022-11-12T19:36:06.712Z,100358.25
2022-11-12T19:39:11.842Z,100359.06
2022-11-12T19:42:15.988Z,100350.31
2022-11-12T19:45:20.133Z,100361.84
2022-11-12T19:48:25.092Z,100350.72
2022-11-12T19:51:31.309Z,100357.84
2022-11-12T19:54:36.057Z,100357.84
2022-11-12T19:57:45.111Z,100357.84
2022-11-12T20:00:49.377Z,100355.88
2022-11-12T20:03:54.305Z,100353.09
2022-11-12T20:06:58.520Z,100353.91
2022-11-12T20:10:03.167Z,100354.28
2022-11-12T20:13:07.195Z,100350.72
2022-11-12T20:16:20.731Z,100345.94
2022-11-12T20:19:28.104Z,100345.16
2022-11-12T20:22:33.083Z,100342.38
2022-11-12T20:25:37.575Z,100353.88
2022-11-12T20:28:43.208Z,100345.53
2022-11-12T20:31:47.803Z,100340.38
2022-11-12T20:34:52.474Z,100337.19
2022-11-12T20:37:56.583Z,100340.38
2022-11-12T20:41:02.803Z,100347.94
2022-11-12T20:44:06.882Z,100343.59
2022-11-12T20:47:11.035Z,100338.81
2022-11-12T20:50:15.981Z,100338.41
2022-11-12T20:53:20.586Z,100345.16
2022-11-12T20:56:26.875Z,100330.09
2022-11-12T20:59:31.703Z,100339.59
2022-11-12T21:02:35.783Z,100329.28
2022-11-12T21:05:39.950Z,100326.91
2022-11-12T21:08:45.043Z,100316.59
2022-11-12T21:11:49.464Z,100316.19
2022-11-12T21:14:53.940Z,100309.44
2022-11-12T21:17:57.873Z,100311.00
2022-11-12T21:21:05.208Z,100308.22
2022-11-12T21:24:09.454Z,100308.63
2022-11-12T21:27:13.967Z,100303.47
2022-11-12T21:30:19.834Z,100296.72
2022-11-12T21:33:24.168Z,100309.44
2022-11-12T21:36:28.605Z,100302.28
2022-11-12T21:39:32.813Z,100293.16
2022-11-12T21:42:37.039Z,100295.13
2022-11-12T21:45:46.399Z,100293.16
2022-11-12T21:48:55.279Z,100292.75
2022-11-12T21:51:59.851Z,100293.16
2022-11-12T21:55:04.700Z,100293.16
2022-11-12T21:58:08.758Z,100286.38
2022-11-12T22:01:19.907Z,100293.53
2022-11-12T22:04:24.984Z,100293.13
2022-11-12T22:07:28.901Z,100288.38
2022-11-12T22:10:33.113Z,100289.19
2022-11-12T22:13:38.158Z,100288.78
2022-11-12T22:16:42.241Z,100285.59
2022-11-12T22:19:46.434Z,100289.16
2022-11-12T22:22:52.203Z,100290.34
2022-11-12T22:25:57.755Z,100286.38
2022-11-12T22:29:02.015Z,100281.22
2022-11-12T22:32:06.677Z,100280.81
2022-11-12T22:35:11.251Z,100274.47
2022-11-12T22:38:15.204Z,100270.50
2022-11-12T22:41:21.763Z,100261.78
2022-11-12T22:44:25.839Z,100262.94
2022-11-12T22:47:30.079Z,100256.19
2022-11-12T22:50:34.361Z,100257.38
2022-11-12T22:53:39.116Z,100255.78
2022-11-12T22:56:43.159Z,100254.59
2022-11-12T22:59:47.151Z,100249.03
2022-11-12T23:02:51.147Z,100241.13
2022-11-12T23:06:05.360Z,100242.72
2022-11-12T23:09:15.406Z,100250.22
2022-11-12T23:12:19.382Z,100260.13
2022-11-12T23:15:23.387Z,100253.00
2022-11-12T23:18:27.767Z,100252.19
2022-11-12T23:21:32.486Z,100231.56
2022-11-12T23:24:36.584Z,100240.72
2022-11-12T23:27:40.685Z,100246.66
2022-11-12T23:30:50.349Z,100234.38
2022-11-12T23:33:56.756Z,100230.78
2022-11-12T23:37:00.464Z,100231.59
2022-11-12T23:40:05.184Z,100234.75
2022-11-12T23:43:09.603Z,100224.44
2022-11-12T23:46:14.002Z,100223.66
2022-11-12T23:49:18.209Z,100214.13
2022-11-12T23:52:22.474Z,100212.16
2022-11-12T23:55:29.127Z,100206.59
2022-11-12T23:58:33.741Z,100207.78
